sensor_id;sensor_type;location;lat;lon;timestamp;pressure;altitude;pressure_sealevel;temperature
24278;BMP280;12394;42.692;23.314;2023-06-22T00:00:54;95427.84;;;19.83
24278;BMP280;12394;42.692;23.314;2023-06-22T00:03:22;95415.94;;;19.66
24278;BMP280;12394;42.692;23.314;2023-06-22T00:05:49;95416.63;;;19.57
24278;BMP280;12394;42.692;23.314;2023-06-22T00:08:15;95421.13;;;19.47
24278;BMP280;12394;42.692;23.314;2023-06-22T00:10:41;95417.38;;;19.58
24278;BMP280;12394;42.692;23.314;2023-06-22T00:13:07;95411.25;;;19.48
24278;BMP280;12394;42.692;23.314;2023-06-22T00:15:34;95425.56;;;19.50
24278;BMP280;12394;42.692;23.314;2023-06-22T00:17:59;95421.31;;;19.53
24278;BMP280;12394;42.692;23.314;2023-06-22T00:20:26;95420.66;;;19.49
24278;BMP280;12394;42.692;23.314;2023-06-22T00:22:56;95418.47;;;19.47
24278;BMP280;12394;42.692;23.314;2023-06-22T00:25:22;95412.00;;;19.48
24278;BMP280;12394;42.692;23.314;2023-06-22T00:27:47;95412.53;;;19.43
24278;BMP280;12394;42.692;23.314;2023-06-22T00:30:15;95407.22;;;19.43
24278;BMP280;12394;42.692;23.314;2023-06-22T00:32:40;95397.44;;;19.40
24278;BMP280;12394;42.692;23.314;2023-06-22T00:35:06;95399.78;;;19.38
24278;BMP280;12394;42.692;23.314;2023-06-22T00:37:32;95398.31;;;19.37
24278;BMP280;12394;42.692;23.314;2023-06-22T00:39:57;95404.03;;;19.36
24278;BMP280;12394;42.692;23.314;2023-06-22T00:42:23;95401.09;;;19.34
24278;BMP280;12394;42.692;23.314;2023-06-22T00:44:48;95384.47;;;19.21
24278;BMP280;12394;42.692;23.314;2023-06-22T00:47:16;95402.81;;;19.28
24278;BMP280;12394;42.692;23.314;2023-06-22T00:49:42;95392.53;;;19.17
24278;BMP280;12394;42.692;23.314;2023-06-22T00:52:09;95409.28;;;19.27
24278;BMP280;12394;42.692;23.314;2023-06-22T00:54:40;95388.09;;;19.14
24278;BMP280;12394;42.692;23.314;2023-06-22T00:57:13;95407.50;;;19.24
24278;BMP280;12394;42.692;23.314;2023-06-22T00:59:42;95404.50;;;19.22
24278;BMP280;12394;42.692;23.314;2023-06-22T01:02:08;95401.34;;;19.14
24278;BMP280;12394;42.692;23.314;2023-06-22T01:04:35;95422.91;;;19.16
24278;BMP280;12394;42.692;23.314;2023-06-22T01:07:39;95420.69;;;19.15
24278;BMP280;12394;42.692;23.314;2023-06-22T01:10:24;95418.44;;;19.13
24278;BMP280;12394;42.692;23.314;2023-06-22T01:12:57;95412.09;;;19.10
24278;BMP280;12394;42.692;23.314;2023-06-22T01:15:40;95414.13;;;19.06
24278;BMP280;12394;42.692;23.314;2023-06-22T01:18:09;95408.81;;;19.06
24278;BMP280;12394;42.692;23.314;2023-06-22T01:20:35;95419.31;;;19.10
24278;BMP280;12394;42.692;23.314;2023-06-22T01:23:11;95408.81;;;19.06
24278;BMP280;12394;42.692;23.314;2023-06-22T01:25:47;95414.41;;;19.08
24278;BMP280;12394;42.692;23.314;2023-06-22T01:28:51;95415.72;;;19.04
24278;BMP280;12394;42.692;23.314;2023-06-22T01:31:21;95421.47;;;19.02
24278;BMP280;12394;42.692;23.314;2023-06-22T01:33:57;95420.38;;;19.00
24278;BMP280;12394;42.692;23.314;2023-06-22T01:36:24;95433.34;;;18.98
24278;BMP280;12394;42.692;23.314;2023-06-22T01:38:50;95426.56;;;18.97
24278;BMP280;12394;42.692;23.314;2023-06-22T01:41:17;95427.31;;;18.97
24278;BMP280;12394;42.692;23.314;2023-06-22T01:43:43;95431.22;;;18.93
24278;BMP280;12394;42.692;23.314;2023-06-22T01:46:11;95436.22;;;18.91
24278;BMP280;12394;42.692;23.314;2023-06-22T01:48:38;95429.88;;;18.88
24278;BMP280;12394;42.692;23.314;2023-06-22T01:51:04;95425.84;;;18.84
24278;BMP280;12394;42.692;23.314;2023-06-22T01:53:29;95434.53;;;18.84
24278;BMP280;12394;42.692;23.314;2023-06-22T01:55:56;95439.50;;;18.82
24278;BMP280;12394;42.692;23.314;2023-06-22T01:58:25;95432.41;;;18.79
24278;BMP280;12394;42.692;23.314;2023-06-22T02:00:58;95431.88;;;18.72
24278;BMP280;12394;42.692;23.314;2023-06-22T02:03:32;95431.88;;;18.72
24278;BMP280;12394;42.692;23.314;2023-06-22T02:06:06;95451.94;;;18.73
24278;BMP280;12394;42.692;23.314;2023-06-22T02:08:47;95453.94;;;18.69
24278;BMP280;12394;42.692;23.314;2023-06-22T02:11:15;95455.09;;;18.67
24278;BMP280;12394;42.692;23.314;2023-06-22T02:13:42;95451.81;;;18.63
24278;BMP280;12394;42.692;23.314;2023-06-22T02:16:14;95430.41;;;18.58
24278;BMP280;12394;42.692;23.314;2023-06-22T02:18:46;95434.44;;;18.62
24278;BMP280;12394;42.692;23.314;2023-06-22T02:21:11;95430.41;;;18.45
24278;BMP280;12394;42.692;23.314;2023-06-22T02:23:37;95441.94;;;18.51
24278;BMP280;12394;42.692;23.314;2023-06-22T02:26:03;95428.28;;;18.40
24278;BMP280;12394;42.692;23.314;2023-06-22T02:28:29;95438.97;;;18.49
24278;BMP280;12394;42.692;23.314;2023-06-22T02:30:54;95430.09;;;18.43
24278;BMP280;12394;42.692;23.314;2023-06-22T02:33:20;95426.59;;;18.46
24278;BMP280;12394;42.692;23.314;2023-06-22T02:35:45;95428.28;;;18.40
24278;BMP280;12394;42.692;23.314;2023-06-22T02:38:14;95426.16;;;18.35
24278;BMP280;12394;42.692;23.314;2023-06-22T02:40:40;95431.16;;;18.33
24278;BMP280;12394;42.692;23.314;2023-06-22T02:43:05;95438.66;;;18.22
24278;BMP280;12394;42.692;23.314;2023-06-22T02:45:31;95443.19;;;18.21
24278;BMP280;12394;42.692;23.314;2023-06-22T02:47:57;95438.88;;;18.15
24278;BMP280;12394;42.692;23.314;2023-06-22T02:50:23;95434.19;;;18.06
24278;BMP280;12394;42.692;23.314;2023-06-22T02:52:48;95451.47;;;18.11
24278;BMP280;12394;42.692;23.314;2023-06-22T02:55:14;95436.09;;;18.06
24278;BMP280;12394;42.692;23.314;2023-06-22T02:57:39;95438.00;;;18.05
24278;BMP280;12394;42.692;23.314;2023-06-22T03:02:48;95427.69;;;17.95
24278;BMP280;12394;42.692;23.314;2023-06-22T03:05:15;95440.34;;;18.03
24278;BMP280;12394;42.692;23.314;2023-06-22T03:07:43;95441.50;;;18.02
24278;BMP280;12394;42.692;23.314;2023-06-22T03:10:10;95447.22;;;18.01
24278;BMP280;12394;42.692;23.314;2023-06-22T03:12:37;95449.00;;;18.04
24278;BMP280;12394;42.692;23.314;2023-06-22T03:15:05;95461.72;;;18.09
24278;BMP280;12394;42.692;23.314;2023-06-22T03:17:30;95459.41;;;18.11
24278;BMP280;12394;42.692;23.314;2023-06-22T03:19:56;95460.78;;;18.15
24278;BMP280;12394;42.692;23.314;2023-06-22T03:22:21;95475.09;;;18.18
24278;BMP280;12394;42.692;23.314;2023-06-22T03:24:46;95457.81;;;18.13
24278;BMP280;12394;42.692;23.314;2023-06-22T03:27:12;95461.84;;;18.18
24278;BMP280;12394;42.692;23.314;2023-06-22T03:29:38;95474.38;;;18.30
24278;BMP280;12394;42.692;23.314;2023-06-22T03:32:04;95476.19;;;18.33
24278;BMP280;12394;42.692;23.314;2023-06-22T03:34:31;95473.84;;;18.35
24278;BMP280;12394;42.692;23.314;2023-06-22T03:36:58;95477.16;;;18.39
24278;BMP280;12394;42.692;23.314;2023-06-22T03:39:24;95476.41;;;18.39
24278;BMP280;12394;42.692;23.314;2023-06-22T03:41:49;95463.88;;;18.27
24278;BMP280;12394;42.692;23.314;2023-06-22T03:44:15;95484.47;;;18.48
24278;BMP280;12394;42.692;23.314;2023-06-22T03:46:40;95485.09;;;18.52
24278;BMP280;12394;42.692;23.314;2023-06-22T03:49:06;95490.00;;;18.53
24278;BMP280;12394;42.692;23.314;2023-06-22T03:51:32;95473.53;;;18.46
24278;BMP280;12394;42.692;23.314;2023-06-22T03:53:58;95509.38;;;18.63
24278;BMP280;12394;42.692;23.314;2023-06-22T03:56:23;95503.25;;;18.66
24278;BMP280;12394;42.692;23.314;2023-06-22T03:58:49;95505.47;;;18.67
24278;BMP280;12394;42.692;23.314;2023-06-22T04:01:14;95491.16;;;18.65
24278;BMP280;12394;42.692;23.314;2023-06-22T04:03:42;95500.28;;;18.64
24278;BMP280;12394;42.692;23.314;2023-06-22T04:06:07;95497.09;;;18.56
24278;BMP280;12394;42.692;23.314;2023-06-22T04:08:33;95498.16;;;18.59
24278;BMP280;12394;42.692;23.314;2023-06-22T04:10:58;95498.50;;;18.61
24278;BMP280;12394;42.692;23.314;2023-06-22T04:13:24;95479.59;;;18.72
24278;BMP280;12394;42.692;23.314;2023-06-22T04:15:49;95470.28;;;18.67
24278;BMP280;12394;42.692;23.314;2023-06-22T04:18:14;95479.28;;;18.82
24278;BMP280;12394;42.692;23.314;2023-06-22T04:20:40;95477.47;;;18.92
24278;BMP280;12394;42.692;23.314;2023-06-22T04:23:05;95457.41;;;18.91
24278;BMP280;12394;42.692;23.314;2023-06-22T04:25:31;95464.28;;;19.14
24278;BMP280;12394;42.692;23.314;2023-06-22T04:27:56;95470.13;;;19.21
24278;BMP280;12394;42.692;23.314;2023-06-22T04:30:21;95466.75;;;19.42
24278;BMP280;12394;42.692;23.314;2023-06-22T04:32:47;95462.84;;;19.47
24278;BMP280;12394;42.692;23.314;2023-06-22T04:35:21;95465.78;;;19.49
24278;BMP280;12394;42.692;23.314;2023-06-22T04:37:48;95480.56;;;19.72
24278;BMP280;12394;42.692;23.314;2023-06-22T04:40:15;95480.47;;;19.75
24278;BMP280;12394;42.692;23.314;2023-06-22T04:42:40;95473.84;;;19.80
24278;BMP280;12394;42.692;23.314;2023-06-22T04:45:08;95477.44;;;19.86
24278;BMP280;12394;42.692;23.314;2023-06-22T04:47:34;95476.75;;;19.94
24278;BMP280;12394;42.692;23.314;2023-06-22T04:50:04;95474.59;;;20.02
24278;BMP280;12394;42.692;23.314;2023-06-22T04:52:31;95485.69;;;20.10
24278;BMP280;12394;42.692;23.314;2023-06-22T04:54:56;95493.28;;;20.20
24278;BMP280;12394;42.692;23.314;2023-06-22T04:57:22;95492.75;;;20.25
24278;BMP280;12394;42.692;23.314;2023-06-22T04:59:58;95490.09;;;20.25
24278;BMP280;12394;42.692;23.314;2023-06-22T05:02:39;95485.44;;;20.38
24278;BMP280;12394;42.692;23.314;2023-06-22T05:05:05;95493.06;;;20.58
24278;BMP280;12394;42.692;23.314;2023-06-22T05:07:35;95491.06;;;20.71
24278;BMP280;12394;42.692;23.314;2023-06-22T05:10:04;95486.81;;;20.83
24278;BMP280;12394;42.692;23.314;2023-06-22T05:12:30;95494.84;;;21.01
24278;BMP280;12394;42.692;23.314;2023-06-22T05:14:56;95460.34;;;20.79
24278;BMP280;12394;42.692;23.314;2023-06-22T05:17:21;95487.88;;;21.04
24278;BMP280;12394;42.692;23.314;2023-06-22T05:19:47;95483.78;;;21.12
24278;BMP280;12394;42.692;23.314;2023-06-22T05:22:17;95494.63;;;21.26
24278;BMP280;12394;42.692;23.314;2023-06-22T05:24:43;95494.63;;;21.36
24278;BMP280;12394;42.692;23.314;2023-06-22T05:27:09;95501.59;;;21.42
24278;BMP280;12394;42.692;23.314;2023-06-22T05:29:35;95505.44;;;21.50
24278;BMP280;12394;42.692;23.314;2023-06-22T05:32:01;95506.63;;;21.58
24278;BMP280;12394;42.692;23.314;2023-06-22T05:34:26;95506.78;;;21.64
24278;BMP280;12394;42.692;23.314;2023-06-22T05:36:51;95515.09;;;21.75
24278;BMP280;12394;42.692;23.314;2023-06-22T05:39:17;95511.84;;;21.80
24278;BMP280;12394;42.692;23.314;2023-06-22T05:41:44;95521.91;;;21.94
24278;BMP280;12394;42.692;23.314;2023-06-22T05:44:09;95525.88;;;21.99
24278;BMP280;12394;42.692;23.314;2023-06-22T05:46:35;95518.94;;;22.01
24278;BMP280;12394;42.692;23.314;2023-06-22T05:49:00;95513.00;;;22.15
24278;BMP280;12394;42.692;23.314;2023-06-22T05:51:25;95520.38;;;22.30
24278;BMP280;12394;42.692;23.314;2023-06-22T05:53:51;95517.69;;;22.39
24278;BMP280;12394;42.692;23.314;2023-06-22T05:56:17;95510.88;;;22.47
24278;BMP280;12394;42.692;23.314;2023-06-22T05:58:42;95519.38;;;22.69
24278;BMP280;12394;42.692;23.314;2023-06-22T06:01:08;95519.50;;;22.84
24278;BMP280;12394;42.692;23.314;2023-06-22T06:03:33;95507.22;;;22.77
24278;BMP280;12394;42.692;23.314;2023-06-22T06:05:59;95521.69;;;22.85
24278;BMP280;12394;42.692;23.314;2023-06-22T06:08:25;95513.81;;;22.91
24278;BMP280;12394;42.692;23.314;2023-06-22T06:10:50;95517.78;;;23.04
24278;BMP280;12394;42.692;23.314;2023-06-22T06:13:18;95511.88;;;23.00
24278;BMP280;12394;42.692;23.314;2023-06-22T06:15:43;95507.22;;;23.10
24278;BMP280;12394;42.692;23.314;2023-06-22T06:18:09;95503.13;;;23.24
24278;BMP280;12394;42.692;23.314;2023-06-22T06:20:34;95507.84;;;23.29
24278;BMP280;12394;42.692;23.314;2023-06-22T06:23:00;95509.03;;;23.28
24278;BMP280;12394;42.692;23.314;2023-06-22T06:25:26;95504.25;;;23.32
24278;BMP280;12394;42.692;23.314;2023-06-22T06:27:52;95511.91;;;23.48
24278;BMP280;12394;42.692;23.314;2023-06-22T06:30:20;95504.97;;;23.65
24278;BMP280;12394;42.692;23.314;2023-06-22T06:32:46;95508.81;;;23.64
24278;BMP280;12394;42.692;23.314;2023-06-22T06:35:13;95499.81;;;23.76
24278;BMP280;12394;42.692;23.314;2023-06-22T06:37:42;95504.63;;;23.87
24278;BMP280;12394;42.692;23.314;2023-06-22T06:40:08;95494.00;;;24.16
24278;BMP280;12394;42.692;23.314;2023-06-22T06:42:39;95497.31;;;24.26
24278;BMP280;12394;42.692;23.314;2023-06-22T06:45:15;95487.63;;;24.28
24278;BMP280;12394;42.692;23.314;2023-06-22T06:47:41;95476.44;;;24.45
24278;BMP280;12394;42.692;23.314;2023-06-22T06:50:07;95489.88;;;24.79
24278;BMP280;12394;42.692;23.314;2023-06-22T06:52:33;95490.22;;;25.02
24278;BMP280;12394;42.692;23.314;2023-06-22T06:54:59;95479.78;;;25.24
24278;BMP280;12394;42.692;23.314;2023-06-22T06:57:26;95487.03;;;25.58
24278;BMP280;12394;42.692;23.314;2023-06-22T06:59:55;95487.94;;;25.96
24278;BMP280;12394;42.692;23.314;2023-06-22T07:02:21;95480.69;;;26.02
24278;BMP280;12394;42.692;23.314;2023-06-22T07:04:47;95486.31;;;26.30
24278;BMP280;12394;42.692;23.314;2023-06-22T07:07:13;95476.75;;;26.54
24278;BMP280;12394;42.692;23.314;2023-06-22T07:09:38;95482.88;;;26.92
24278;BMP280;12394;42.692;23.314;2023-06-22T07:12:04;95446.66;;;26.82
24278;BMP280;12394;42.692;23.314;2023-06-22T07:14:30;95484.72;;;27.12
24278;BMP280;12394;42.692;23.314;2023-06-22T07:16:57;95483.97;;;27.11
24278;BMP280;12394;42.692;23.314;2023-06-22T07:19:25;95490.97;;;27.46
24278;BMP280;12394;42.692;23.314;2023-06-22T07:21:55;95485.41;;;27.55
24278;BMP280;12394;42.692;23.314;2023-06-22T07:24:21;95479.97;;;27.43
24278;BMP280;12394;42.692;23.314;2023-06-22T07:26:47;95480.34;;;27.79
24278;BMP280;12394;42.692;23.314;2023-06-22T07:29:18;95485.28;;;27.97
24278;BMP280;12394;42.692;23.314;2023-06-22T07:31:45;95482.88;;;28.10
24278;BMP280;12394;42.692;23.314;2023-06-22T07:34:10;95483.88;;;28.29
24278;BMP280;12394;42.692;23.314;2023-06-22T07:36:36;95484.13;;;28.20
24278;BMP280;12394;42.692;23.314;2023-06-22T07:39:02;95480.94;;;28.27
24278;BMP280;12394;42.692;23.314;2023-06-22T07:41:29;95495.59;;;28.26
24278;BMP280;12394;42.692;23.314;2023-06-22T07:43:54;95484.59;;;28.58
24278;BMP280;12394;42.692;23.314;2023-06-22T07:46:20;95486.78;;;28.87
24278;BMP280;12394;42.692;23.314;2023-06-22T07:48:45;95485.53;;;28.94
24278;BMP280;12394;42.692;23.314;2023-06-22T07:51:10;95491.19;;;29.07
24278;BMP280;12394;42.692;23.314;2023-06-22T07:53:38;95482.78;;;29.22
24278;BMP280;12394;42.692;23.314;2023-06-22T07:56:05;95489.94;;;29.77
24278;BMP280;12394;42.692;23.314;2023-06-22T07:58:32;95486.66;;;30.30
24278;BMP280;12394;42.692;23.314;2023-06-22T08:01:01;95477.28;;;30.42
24278;BMP280;12394;42.692;23.314;2023-06-22T08:03:27;95477.50;;;30.74
24278;BMP280;12394;42.692;23.314;2023-06-22T08:05:53;95469.53;;;30.58
24278;BMP280;12394;42.692;23.314;2023-06-22T08:08:18;95473.97;;;31.09
24278;BMP280;12394;42.692;23.314;2023-06-22T08:10:44;95472.03;;;31.71
24278;BMP280;12394;42.692;23.314;2023-06-22T08:13:09;95473.50;;;32.10
24278;BMP280;12394;42.692;23.314;2023-06-22T08:15:35;95457.78;;;32.21
24278;BMP280;12394;42.692;23.314;2023-06-22T08:18:00;95460.81;;;31.99
24278;BMP280;12394;42.692;23.314;2023-06-22T08:20:26;95462.94;;;32.06
24278;BMP280;12394;42.692;23.314;2023-06-22T08:22:53;95451.97;;;32.62
24278;BMP280;12394;42.692;23.314;2023-06-22T08:25:19;95461.53;;;33.22
24278;BMP280;12394;42.692;23.314;2023-06-22T08:27:45;95455.34;;;33.21
24278;BMP280;12394;42.692;23.314;2023-06-22T08:30:12;95450.81;;;33.16
24278;BMP280;12394;42.692;23.314;2023-06-22T08:32:37;95452.03;;;33.15
24278;BMP280;12394;42.692;23.314;2023-06-22T08:35:03;95455.56;;;33.36
24278;BMP280;12394;42.692;23.314;2023-06-22T08:37:29;95456.50;;;33.26
24278;BMP280;12394;42.692;23.314;2023-06-22T08:40:04;95457.66;;;33.30
24278;BMP280;12394;42.692;23.314;2023-06-22T08:42:34;95459.84;;;33.92
24278;BMP280;12394;42.692;23.314;2023-06-22T08:45:00;95462.81;;;34.85
24278;BMP280;12394;42.692;23.314;2023-06-22T08:47:27;95466.56;;;35.31
24278;BMP280;12394;42.692;23.314;2023-06-22T08:49:52;95460.00;;;36.36
24278;BMP280;12394;42.692;23.314;2023-06-22T08:52:18;95450.44;;;37.35
24278;BMP280;12394;42.692;23.314;2023-06-22T08:54:45;95438.78;;;38.15
24278;BMP280;12394;42.692;23.314;2023-06-22T08:57:10;95442.00;;;38.70
24278;BMP280;12394;42.692;23.314;2023-06-22T08:59:36;95440.75;;;38.89
24278;BMP280;12394;42.692;23.314;2023-06-22T09:02:01;95441.00;;;40.32
24278;BMP280;12394;42.692;23.314;2023-06-22T09:04:27;95431.22;;;40.12
24278;BMP280;12394;42.692;23.314;2023-06-22T09:06:52;95437.28;;;40.47
24278;BMP280;12394;42.692;23.314;2023-06-22T09:09:18;95432.91;;;40.34
24278;BMP280;12394;42.692;23.314;2023-06-22T09:11:44;95427.88;;;40.40
24278;BMP280;12394;42.692;23.314;2023-06-22T09:14:10;95434.19;;;40.70
24278;BMP280;12394;42.692;23.314;2023-06-22T09:16:36;95439.72;;;41.08
24278;BMP280;12394;42.692;23.314;2023-06-22T09:19:02;95428.66;;;41.85
24278;BMP280;12394;42.692;23.314;2023-06-22T09:21:28;95434.56;;;42.01
24278;BMP280;12394;42.692;23.314;2023-06-22T09:23:53;95423.13;;;43.09
24278;BMP280;12394;42.692;23.314;2023-06-22T09:26:19;95430.06;;;42.67
24278;BMP280;12394;42.692;23.314;2023-06-22T09:28:45;95424.63;;;42.17
24278;BMP280;12394;42.692;23.314;2023-06-22T09:31:10;95438.94;;;42.56
24278;BMP280;12394;42.692;23.314;2023-06-22T09:33:36;95433.19;;;42.52
24278;BMP280;12394;42.692;23.314;2023-06-22T09:36:04;95436.19;;;42.56
24278;BMP280;12394;42.692;23.314;2023-06-22T09:38:34;95431.06;;;42.41
24278;BMP280;12394;42.692;23.314;2023-06-22T09:41:00;95438.38;;;43.99
24278;BMP280;12394;42.692;23.314;2023-06-22T09:43:25;95426.50;;;44.19
24278;BMP280;12394;42.692;23.314;2023-06-22T09:45:50;95429.59;;;43.79
24278;BMP280;12394;42.692;23.314;2023-06-22T09:48:16;95426.66;;;44.93
24278;BMP280;12394;42.692;23.314;2023-06-22T09:50:42;95418.75;;;46.14
24278;BMP280;12394;42.692;23.314;2023-06-22T09:53:07;95412.50;;;46.55
24278;BMP280;12394;42.692;23.314;2023-06-22T09:55:32;95400.66;;;45.86
24278;BMP280;12394;42.692;23.314;2023-06-22T09:57:58;95403.75;;;46.06
24278;BMP280;12394;42.692;23.314;2023-06-22T10:00:23;95404.88;;;46.96
24278;BMP280;12394;42.692;23.314;2023-06-22T10:02:49;95400.38;;;46.34
24278;BMP280;12394;42.692;23.314;2023-06-22T10:05:15;95393.16;;;45.75
24278;BMP280;12394;42.692;23.314;2023-06-22T10:07:41;95399.88;;;45.72
24278;BMP280;12394;42.692;23.314;2023-06-22T10:10:09;95398.00;;;45.49
24278;BMP280;12394;42.692;23.314;2023-06-22T10:12:35;95406.59;;;45.80
24278;BMP280;12394;42.692;23.314;2023-06-22T10:15:00;95396.03;;;45.77
24278;BMP280;12394;42.692;23.314;2023-06-22T10:17:25;95387.34;;;45.82
24278;BMP280;12394;42.692;23.314;2023-06-22T10:19:51;95378.38;;;46.23
24278;BMP280;12394;42.692;23.314;2023-06-22T10:22:16;95292.25;;;45.23
24278;BMP280;12394;42.692;23.314;2023-06-22T10:24:42;95357.84;;;44.60
24278;BMP280;12394;42.692;23.314;2023-06-22T10:27:11;95380.47;;;45.19
24278;BMP280;12394;42.692;23.314;2023-06-22T10:29:37;95394.00;;;44.41
24278;BMP280;12394;42.692;23.314;2023-06-22T10:32:03;95383.81;;;44.32
24278;BMP280;12394;42.692;23.314;2023-06-22T10:34:28;95386.56;;;44.09
24278;BMP280;12394;42.692;23.314;2023-06-22T10:36:54;95381.94;;;43.55
24278;BMP280;12394;42.692;23.314;2023-06-22T10:39:19;95376.69;;;41.89
24278;BMP280;12394;42.692;23.314;2023-06-22T10:41:45;95377.13;;;40.68
24278;BMP280;12394;42.692;23.314;2023-06-22T10:44:11;95364.97;;;39.52
24278;BMP280;12394;42.692;23.314;2023-06-22T10:46:37;95358.47;;;39.04
24278;BMP280;12394;42.692;23.314;2023-06-22T10:49:03;95360.53;;;38.44
24278;BMP280;12394;42.692;23.314;2023-06-22T10:51:28;95364.13;;;37.48
24278;BMP280;12394;42.692;23.314;2023-06-22T10:53:54;95351.69;;;36.51
24278;BMP280;12394;42.692;23.314;2023-06-22T10:56:19;95352.78;;;35.95
24278;BMP280;12394;42.692;23.314;2023-06-22T10:58:45;95353.13;;;35.69
24278;BMP280;12394;42.692;23.314;2023-06-22T11:01:11;95352.69;;;35.57
24278;BMP280;12394;42.692;23.314;2023-06-22T11:03:36;95360.38;;;35.15
24278;BMP280;12394;42.692;23.314;2023-06-22T11:06:02;95357.78;;;35.02
24278;BMP280;12394;42.692;23.314;2023-06-22T11:08:27;95360.81;;;34.91
24278;BMP280;12394;42.692;23.314;2023-06-22T11:10:53;95357.97;;;34.68
24278;BMP280;12394;42.692;23.314;2023-06-22T11:13:18;95332.19;;;34.33
24278;BMP280;12394;42.692;23.314;2023-06-22T11:15:44;95350.91;;;34.45
24278;BMP280;12394;42.692;23.314;2023-06-22T11:18:09;95350.41;;;34.25
24278;BMP280;12394;42.692;23.314;2023-06-22T11:20:35;95356.63;;;34.13
24278;BMP280;12394;42.692;23.314;2023-06-22T11:23:04;95333.97;;;34.31
24278;BMP280;12394;42.692;23.314;2023-06-22T11:25:30;95332.19;;;34.13
24278;BMP280;12394;42.692;23.314;2023-06-22T11:27:56;95327.56;;;34.00
24278;BMP280;12394;42.692;23.314;2023-06-22T11:30:21;95328.16;;;34.06
24278;BMP280;12394;42.692;23.314;2023-06-22T11:32:47;95341.47;;;33.97
24278;BMP280;12394;42.692;23.314;2023-06-22T11:35:13;95331.59;;;33.65
24278;BMP280;12394;42.692;23.314;2023-06-22T11:37:38;95328.66;;;33.42
24278;BMP280;12394;42.692;23.314;2023-06-22T11:40:04;95328.91;;;33.31
24278;BMP280;12394;42.692;23.314;2023-06-22T11:42:30;95330.59;;;33.08
24278;BMP280;12394;42.692;23.314;2023-06-22T11:44:56;95287.72;;;32.73
24278;BMP280;12394;42.692;23.314;2023-06-22T11:47:21;95325.56;;;32.78
24278;BMP280;12394;42.692;23.314;2023-06-22T11:49:47;95325.63;;;32.86
24278;BMP280;12394;42.692;23.314;2023-06-22T11:52:12;95320.63;;;32.50
24278;BMP280;12394;42.692;23.314;2023-06-22T11:54:38;95314.59;;;32.31
24278;BMP280;12394;42.692;23.314;2023-06-22T11:57:04;95306.03;;;32.14
24278;BMP280;12394;42.692;23.314;2023-06-22T11:59:29;95317.47;;;32.07
24278;BMP280;12394;42.692;23.314;2023-06-22T12:01:55;95324.91;;;32.19
24278;BMP280;12394;42.692;23.314;2023-06-22T12:04:20;95323.53;;;32.26
24278;BMP280;12394;42.692;23.314;2023-06-22T12:06:46;95333.34;;;32.29
24278;BMP280;12394;42.692;23.314;2023-06-22T12:09:14;95324.06;;;32.11
24278;BMP280;12394;42.692;23.314;2023-06-22T12:11:40;95309.16;;;31.73
24278;BMP280;12394;42.692;23.314;2023-06-22T12:14:05;95330.25;;;31.61
24278;BMP280;12394;42.692;23.314;2023-06-22T12:16:31;95337.84;;;31.44
24278;BMP280;12394;42.692;23.314;2023-06-22T12:18:56;95332.63;;;31.14
24278;BMP280;12394;42.692;23.314;2023-06-22T12:21:22;95327.94;;;30.72
24278;BMP280;12394;42.692;23.314;2023-06-22T12:23:47;95335.44;;;30.36
24278;BMP280;12394;42.692;23.314;2023-06-22T12:26:13;95343.16;;;29.96
24278;BMP280;12394;42.692;23.314;2023-06-22T12:28:38;95336.66;;;29.40
24278;BMP280;12394;42.692;23.314;2023-06-22T12:31:04;95343.13;;;28.51
24278;BMP280;12394;42.692;23.314;2023-06-22T12:33:29;95355.44;;;28.19
24278;BMP280;12394;42.692;23.314;2023-06-22T12:35:56;95367.16;;;27.66
24278;BMP280;12394;42.692;23.314;2023-06-22T12:38:22;95377.56;;;27.41
24278;BMP280;12394;42.692;23.314;2023-06-22T12:40:49;95380.41;;;27.10
24278;BMP280;12394;42.692;23.314;2023-06-22T12:43:14;95376.69;;;26.96
24278;BMP280;12394;42.692;23.314;2023-06-22T12:45:40;95383.44;;;26.81
24278;BMP280;12394;42.692;23.314;2023-06-22T12:48:06;95358.69;;;26.60
24278;BMP280;12394;42.692;23.314;2023-06-22T12:50:32;95373.78;;;26.58
24278;BMP280;12394;42.692;23.314;2023-06-22T12:52:57;95408.06;;;26.74
24278;BMP280;12394;42.692;23.314;2023-06-22T12:55:23;95411.81;;;26.87
24278;BMP280;12394;42.692;23.314;2023-06-22T12:57:51;95408.59;;;26.83
24278;BMP280;12394;42.692;23.314;2023-06-22T13:00:17;95377.00;;;26.62
24278;BMP280;12394;42.692;23.314;2023-06-22T13:02:43;95387.91;;;26.47
24278;BMP280;12394;42.692;23.314;2023-06-22T13:05:09;95385.63;;;26.34
24278;BMP280;12394;42.692;23.314;2023-06-22T13:07:34;95393.34;;;26.27
24278;BMP280;12394;42.692;23.314;2023-06-22T13:10:00;95390.06;;;26.43
24278;BMP280;12394;42.692;23.314;2023-06-22T13:12:28;95395.22;;;26.46
24278;BMP280;12394;42.692;23.314;2023-06-22T13:14:53;95405.72;;;26.50
24278;BMP280;12394;42.692;23.314;2023-06-22T13:17:19;95408.16;;;26.53
24278;BMP280;12394;42.692;23.314;2023-06-22T13:19:44;95413.66;;;26.33
24278;BMP280;12394;42.692;23.314;2023-06-22T13:22:38;95416.34;;;26.33
24278;BMP280;12394;42.692;23.314;2023-06-22T13:25:22;95405.19;;;26.46
24278;BMP280;12394;42.692;23.314;2023-06-22T13:27:51;95394.44;;;26.40
24278;BMP280;12394;42.692;23.314;2023-06-22T13:30:17;95402.38;;;26.24
24278;BMP280;12394;42.692;23.314;2023-06-22T13:32:42;95381.66;;;26.24
24278;BMP280;12394;42.692;23.314;2023-06-22T13:35:09;95381.56;;;26.19
24278;BMP280;12394;42.692;23.314;2023-06-22T13:37:35;95386.56;;;26.31
24278;BMP280;12394;42.692;23.314;2023-06-22T13:40:00;95371.25;;;26.37
24278;BMP280;12394;42.692;23.314;2023-06-22T13:42:28;95371.25;;;26.37
24278;BMP280;12394;42.692;23.314;2023-06-22T13:44:54;95364.13;;;26.29
24278;BMP280;12394;42.692;23.314;2023-06-22T13:47:19;95364.91;;;26.40
24278;BMP280;12394;42.692;23.314;2023-06-22T13:49:45;95376.41;;;26.46
24278;BMP280;12394;42.692;23.314;2023-06-22T13:52:13;95364.91;;;26.40
24278;BMP280;12394;42.692;23.314;2023-06-22T13:54:39;95365.66;;;26.41
24278;BMP280;12394;42.692;23.314;2023-06-22T13:57:05;95364.59;;;26.27